Time;durP1;ratioP1;P1;durP2;ratioP2;P2;SDS_P1;SDS_P2;PMS_P1;PMS_P2;Temp;Humidity;BMP_temperature;BMP_pressure;BME280_temperature;BME280_humidity;BME280_pressure;Samples;Min_cycle;Max_cycle;Signal;HPM_P1;HPM_P2
2023/03/18 00:00:19;;;;;;;7.65;3.83;;;;;;;;;;8465695;28;20050;-82
2023/03/18 00:04:44;;;;;;;7.82;3.88;;;;;;;;;;8465085;28;20036;-81
2023/03/18 00:08:48;;;;;;;15.13;4.28;;;;;;;;;;8464952;28;20047;-86
2023/03/18 00:12:52;;;;;;;10.65;4.32;;;;;;;;;;8464669;28;20067;-82
2023/03/18 00:16:55;;;;;;;10.65;4.55;;;;;;;;;;8464540;28;20484;-82
2023/03/18 00:20:59;;;;;;;6.43;3.95;;;;;;;;;;8464466;28;20036;-84
2023/03/18 00:25:03;;;;;;;8.18;3.97;;;;;;;;;;8464915;28;20040;-81
2023/03/18 00:29:07;;;;;;;7.40;4.05;;;;;;;;;;8446698;28;20054;-83
2023/03/18 00:33:11;;;;;;;7.80;4.05;;;;;;;;;;8442099;28;20376;-85
2023/03/18 00:37:26;;;;;;;10.73;4.35;;;;;;;;;;8464298;28;20453;-82
2023/03/18 00:41:31;;;;;;;9.00;3.78;;;;;;;;;;8464463;28;20054;-81
2023/03/18 00:45:37;;;;;;;5.40;3.10;;;;;;;;;;8463894;28;20043;-81
2023/03/18 00:49:40;;;;;;;12.50;4.75;;;;;;;;;;8464030;28;20104;-82
2023/03/18 00:53:47;;;;;;;9.30;3.83;;;;;;;;;;8437124;28;20035;-81
2023/03/18 00:57:50;;;;;;;6.63;3.22;;;;;;;;;;8463518;28;20130;-81
2023/03/18 01:01:52;;;;;;;7.47;3.20;;;;;;;;;;8464021;28;20042;-85
2023/03/18 01:05:56;;;;;;;10.95;4.50;;;;;;;;;;8463405;28;20434;-83
2023/03/18 01:10:01;;;;;;;6.70;3.42;;;;;;;;;;8463522;28;20044;-83
2023/03/18 01:14:04;;;;;;;8.05;3.55;;;;;;;;;;8462462;28;20135;-80
2023/03/18 01:18:07;;;;;;;8.95;4.30;;;;;;;;;;8463268;28;20059;-83
2023/03/18 01:22:10;;;;;;;10.02;4.10;;;;;;;;;;8462572;28;20044;-85
2023/03/18 01:26:15;;;;;;;10.35;4.15;;;;;;;;;;8455765;28;20092;-83
2023/03/18 01:30:18;;;;;;;9.68;4.40;;;;;;;;;;8455634;28;20051;-83
2023/03/18 01:34:22;;;;;;;11.68;3.85;;;;;;;;;;8462701;28;20387;-81
2023/03/18 01:38:29;;;;;;;7.28;4.10;;;;;;;;;;8462851;28;20075;-82
2023/03/18 01:42:33;;;;;;;7.30;4.13;;;;;;;;;;8462731;27;20043;-82
2023/03/18 01:46:38;;;;;;;12.05;4.20;;;;;;;;;;8462225;28;20092;-81
2023/03/18 01:50:42;;;;;;;12.48;4.32;;;;;;;;;;8462600;28;20050;-80
2023/03/18 01:54:49;;;;;;;12.75;5.00;;;;;;;;;;8461923;28;20407;-82
2023/03/18 01:58:56;;;;;;;5.72;2.80;;;;;;;;;;8462106;28;20040;-83
2023/03/18 02:02:59;;;;;;;7.90;4.05;;;;;;;;;;8462671;28;20081;-83
2023/03/18 02:07:02;;;;;;;8.68;4.10;;;;;;;;;;8462374;28;20062;-82
2023/03/18 02:11:05;;;;;;;10.98;4.78;;;;;;;;;;8460851;28;20058;-83
2023/03/18 02:15:13;;;;;;;9.57;4.38;;;;;;;;;;8462107;28;20055;-81
2023/03/18 02:19:27;;;;;;;12.30;3.70;;;;;;;;;;8461976;28;20047;-83
2023/03/18 02:23:42;;;;;;;11.48;4.25;;;;;;;;;;8462028;28;20047;-81
2023/03/18 02:27:51;;;;;;;9.85;4.32;;;;;;;;;;8461981;28;20038;-82
2023/03/18 02:31:56;;;;;;;8.88;3.70;;;;;;;;;;8461833;28;20047;-83
2023/03/18 02:36:04;;;;;;;12.85;4.55;;;;;;;;;;8461624;28;20046;-83
2023/03/18 02:40:16;;;;;;;7.30;3.35;;;;;;;;;;8467294;28;20126;-81
2023/03/18 02:44:21;;;;;;;10.35;3.72;;;;;;;;;;8467910;28;20054;-81
2023/03/18 02:48:29;;;;;;;10.13;4.45;;;;;;;;;;8467976;28;20070;-82
2023/03/18 02:52:32;;;;;;;8.48;4.40;;;;;;;;;;8467799;28;20040;-84
2023/03/18 02:56:34;;;;;;;11.85;4.57;;;;;;;;;;8467470;28;20039;-84
2023/03/18 03:00:39;;;;;;;10.60;5.28;;;;;;;;;;8467557;28;20044;-85
2023/03/18 03:04:42;;;;;;;9.27;4.38;;;;;;;;;;8466829;28;20039;-82
2023/03/18 03:08:48;;;;;;;16.58;4.45;;;;;;;;;;8467330;28;20496;-81
2023/03/18 03:12:51;;;;;;;9.02;4.00;;;;;;;;;;8465120;28;20058;-83
2023/03/18 03:16:55;;;;;;;13.75;4.95;;;;;;;;;;8467064;28;20043;-82
2023/03/18 03:20:58;;;;;;;14.60;4.80;;;;;;;;;;8467020;28;20039;-81
2023/03/18 03:25:01;;;;;;;14.75;4.63;;;;;;;;;;8466623;28;20035;-81
2023/03/18 03:29:06;;;;;;;13.20;4.85;;;;;;;;;;8452767;28;20063;-82
2023/03/18 03:33:10;;;;;;;13.55;4.57;;;;;;;;;;8466117;28;20072;-82
2023/03/18 03:37:13;;;;;;;10.82;4.75;;;;;;;;;;8465713;27;20043;-84
2023/03/18 03:41:16;;;;;;;12.13;5.03;;;;;;;;;;8466353;28;20039;-80
2023/03/18 03:45:20;;;;;;;11.90;5.25;;;;;;;;;;8466139;28;20479;-83
2023/03/18 03:49:24;;;;;;;11.35;5.07;;;;;;;;;;8465810;28;20047;-85
2023/03/18 03:53:27;;;;;;;8.93;4.43;;;;;;;;;;8465532;28;20055;-85
2023/03/18 03:57:30;;;;;;;11.43;4.57;;;;;;;;;;8466015;28;20047;-82
2023/03/18 04:01:33;;;;;;;12.00;4.32;;;;;;;;;;8466288;28;20044;-83
2023/03/18 04:05:40;;;;;;;10.30;4.78;;;;;;;;;;8466285;28;20524;-84
2023/03/18 04:09:43;;;;;;;15.50;4.85;;;;;;;;;;8465761;28;20403;-80
2023/03/18 04:13:46;;;;;;;12.40;4.90;;;;;;;;;;8464640;28;20066;-82
2023/03/18 04:17:49;;;;;;;11.90;5.45;;;;;;;;;;8465024;28;20043;-81
2023/03/18 04:21:53;;;;;;;37.83;13.70;;;;;;;;;;8465341;28;20498;-81
2023/03/18 04:25:56;;;;;;;23.48;8.57;;;;;;;;;;8464772;28;20395;-81
2023/03/18 04:29:59;;;;;;;12.82;4.90;;;;;;;;;;8464953;28;20051;-81
2023/03/18 04:34:02;;;;;;;14.75;4.43;;;;;;;;;;8464725;28;20049;-81
2023/03/18 04:38:06;;;;;;;12.27;4.78;;;;;;;;;;8464501;28;20122;-80
2023/03/18 04:42:10;;;;;;;13.60;4.80;;;;;;;;;;8464066;28;20495;-82
2023/03/18 04:46:13;;;;;;;11.93;5.00;;;;;;;;;;8463807;28;20047;-82
2023/03/18 04:50:16;;;;;;;10.00;4.20;;;;;;;;;;8463885;28;20043;-81
2023/03/18 04:54:21;;;;;;;7.63;3.97;;;;;;;;;;8463676;28;20043;-80
2023/03/18 04:58:24;;;;;;;9.90;5.20;;;;;;;;;;8450094;28;20408;-82
2023/03/18 05:02:27;;;;;;;21.75;8.45;;;;;;;;;;8463291;28;20043;-82
2023/03/18 05:06:32;;;;;;;22.67;9.18;;;;;;;;;;8463762;28;20146;-80
2023/03/18 05:10:37;;;;;;;10.63;5.85;;;;;;;;;;8463477;28;20047;-83
2023/03/18 05:14:40;;;;;;;11.25;5.30;;;;;;;;;;8462621;28;20074;-82
2023/03/18 05:18:43;;;;;;;14.15;5.30;;;;;;;;;;8462511;28;20047;-84
2023/03/18 05:22:46;;;;;;;11.35;5.18;;;;;;;;;;8454561;28;20040;-83
2023/03/18 05:26:51;;;;;;;11.02;5.10;;;;;;;;;;8445232;28;20505;-81
2023/03/18 05:30:54;;;;;;;12.65;5.07;;;;;;;;;;8462723;28;20045;-81
2023/03/18 05:34:56;;;;;;;8.23;4.65;;;;;;;;;;8462157;28;20074;-81
2023/03/18 05:38:59;;;;;;;8.43;4.00;;;;;;;;;;8462296;28;20468;-84
2023/03/18 05:43:04;;;;;;;14.38;6.03;;;;;;;;;;8462290;28;20050;-85
2023/03/18 05:47:08;;;;;;;15.45;7.13;;;;;;;;;;8462691;28;20138;-82
2023/03/18 05:51:11;;;;;;;21.08;9.27;;;;;;;;;;8462415;28;20059;-82
2023/03/18 05:55:14;;;;;;;26.67;10.48;;;;;;;;;;8462525;28;20051;-83
2023/03/18 05:59:19;;;;;;;13.68;4.97;;;;;;;;;;8461433;28;20060;-83
2023/03/18 06:03:23;;;;;;;11.77;5.75;;;;;;;;;;8461146;28;20066;-83
2023/03/18 06:07:26;;;;;;;20.38;8.00;;;;;;;;;;8462376;28;20094;-85
2023/03/18 06:11:30;;;;;;;9.05;4.10;;;;;;;;;;8461303;28;20074;-82
2023/03/18 06:15:34;;;;;;;15.95;4.30;;;;;;;;;;8466974;28;20412;-83
2023/03/18 06:19:37;;;;;;;9.73;4.38;;;;;;;;;;8468654;28;20216;-82
2023/03/18 06:23:40;;;;;;;9.05;4.15;;;;;;;;;;8468992;28;20058;-81
2023/03/18 06:27:43;;;;;;;9.27;4.10;;;;;;;;;;8468417;28;20089;-86
2023/03/18 06:31:48;;;;;;;7.25;3.75;;;;;;;;;;8468587;28;20044;-82
2023/03/18 06:35:52;;;;;;;9.18;3.80;;;;;;;;;;8468405;28;20406;-83
2023/03/18 06:39:55;;;;;;;12.02;5.38;;;;;;;;;;8468116;28;20686;-87
2023/03/18 06:43:58;;;;;;;7.88;3.75;;;;;;;;;;8458577;28;20040;-81
2023/03/18 06:48:02;;;;;;;7.97;4.18;;;;;;;;;;8460179;28;20040;-82
2023/03/18 06:52:05;;;;;;;10.73;4.72;;;;;;;;;;8440712;28;20047;-83
2023/03/18 06:56:08;;;;;;;8.82;3.63;;;;;;;;;;8466649;28;20050;-82
2023/03/18 07:00:12;;;;;;;10.27;4.53;;;;;;;;;;8466584;28;20067;-83
2023/03/18 07:04:17;;;;;;;10.20;4.90;;;;;;;;;;8465904;28;20125;-81
2023/03/18 07:08:20;;;;;;;8.30;4.32;;;;;;;;;;8466775;28;20051;-83
2023/03/18 07:12:25;;;;;;;8.45;4.13;;;;;;;;;;8466655;28;20438;-85
2023/03/18 07:16:29;;;;;;;6.75;3.30;;;;;;;;;;8467366;28;20064;-81
2023/03/18 07:20:35;;;;;;;8.88;3.03;;;;;;;;;;8463984;28;20127;-85
2023/03/18 07:24:39;;;;;;;23.20;13.25;;;;;;;;;;8464876;28;20039;-82
2023/03/18 07:28:41;;;;;;;11.18;6.93;;;;;;;;;;8466646;28;20042;-83
2023/03/18 07:32:44;;;;;;;51.58;22.50;;;;;;;;;;8449242;28;20032;-82
2023/03/18 07:36:49;;;;;;;8.90;4.47;;;;;;;;;;8456472;28;20046;-80
2023/03/18 07:40:52;;;;;;;24.77;10.48;;;;;;;;;;8466185;28;20040;-88
2023/03/18 07:44:55;;;;;;;21.92;8.90;;;;;;;;;;8466394;28;20045;-83
2023/03/18 07:48:58;;;;;;;46.03;17.30;;;;;;;;;;8465711;28;20036;-81
2023/03/18 07:53:04;;;;;;;18.33;7.88;;;;;;;;;;8428250;28;20052;-80
2023/03/18 07:57:08;;;;;;;12.02;5.15;;;;;;;;;;8419824;28;20044;-80
2023/03/18 08:01:14;;;;;;;10.02;4.30;;;;;;;;;;8436934;28;20424;-83
2023/03/18 08:05:21;;;;;;;11.93;4.85;;;;;;;;;;8426370;28;20057;-86
2023/03/18 08:09:27;;;;;;;9.70;4.50;;;;;;;;;;8422985;28;20416;-81
2023/03/18 08:13:30;;;;;;;8.40;4.20;;;;;;;;;;8408251;28;20086;-81
2023/03/18 08:17:34;;;;;;;10.63;3.92;;;;;;;;;;8420668;28;20097;-80
2023/03/18 08:21:38;;;;;;;7.72;3.80;;;;;;;;;;8426928;28;20052;-80
2023/03/18 08:25:42;;;;;;;7.80;4.00;;;;;;;;;;8426746;28;20510;-81
2023/03/18 08:29:46;;;;;;;11.07;4.65;;;;;;;;;;8418292;28;20566;-81
2023/03/18 08:33:52;;;;;;;12.77;6.82;;;;;;;;;;8415554;28;20048;-81
2023/03/18 08:37:55;;;;;;;11.20;4.53;;;;;;;;;;8425581;28;20062;-82
2023/03/18 08:42:03;;;;;;;9.32;4.68;;;;;;;;;;8409551;28;20062;-80
2023/03/18 08:46:06;;;;;;;8.13;4.10;;;;;;;;;;8418792;28;20385;-82
2023/03/18 08:50:12;;;;;;;9.90;5.03;;;;;;;;;;8421857;28;20044;-80
2023/03/18 08:54:15;;;;;;;9.98;6.65;;;;;;;;;;8432088;28;20052;-82
2023/03/18 08:58:19;;;;;;;11.68;7.22;;;;;;;;;;8406282;28;20552;-82
2023/03/18 09:02:22;;;;;;;15.70;7.78;;;;;;;;;;8425769;28;20051;-83
2023/03/18 09:06:26;;;;;;;7.85;4.80;;;;;;;;;;8422373;28;20127;-81
2023/03/18 09:10:30;;;;;;;9.05;4.00;;;;;;;;;;8422363;28;22480;-82
2023/03/18 09:14:35;;;;;;;8.82;4.68;;;;;;;;;;8427868;28;20052;-81
2023/03/18 09:18:39;;;;;;;7.10;3.90;;;;;;;;;;8425317;28;20551;-79
2023/03/18 09:22:44;;;;;;;9.55;4.53;;;;;;;;;;8425340;28;20044;-80
2023/03/18 09:26:47;;;;;;;8.07;4.35;;;;;;;;;;8423400;28;20454;-81
2023/03/18 09:30:52;;;;;;;9.85;4.60;;;;;;;;;;8425179;28;20131;-81
2023/03/18 09:34:54;;;;;;;8.73;4.25;;;;;;;;;;8411145;28;20048;-80
2023/03/18 09:38:59;;;;;;;8.30;4.13;;;;;;;;;;8421036;28;20472;-80
2023/03/18 09:43:23;;;;;;;8.40;4.43;;;;;;;;;;8416309;28;20086;-83
2023/03/18 09:47:47;;;;;;;11.90;5.53;;;;;;;;;;8439043;28;20041;-80
2023/03/18 09:52:05;;;;;;;10.27;5.20;;;;;;;;;;8413373;28;20040;-79
2023/03/18 09:56:16;;;;;;;11.98;5.32;;;;;;;;;;8403823;28;20048;-80
2023/03/18 10:00:23;;;;;;;9.03;4.23;;;;;;;;;;8416399;28;20105;-80
2023/03/18 10:04:33;;;;;;;8.98;5.10;;;;;;;;;;8426673;28;20129;-81
2023/03/18 10:08:58;;;;;;;15.70;8.85;;;;;;;;;;8425050;28;20048;-81
2023/03/18 10:13:06;;;;;;;8.98;5.85;;;;;;;;;;8412077;28;20571;-80
2023/03/18 10:17:17;;;;;;;13.55;5.93;;;;;;;;;;8415013;28;20055;-80
2023/03/18 10:21:34;;;;;;;19.58;9.60;;;;;;;;;;8440159;28;20051;-90
2023/03/18 10:25:41;;;;;;;9.52;4.20;;;;;;;;;;8416998;28;20051;-82
2023/03/18 10:29:49;;;;;;;8.82;4.20;;;;;;;;;;8417104;28;20151;-82
2023/03/18 10:33:58;;;;;;;7.53;4.00;;;;;;;;;;8412765;28;20058;-81
2023/03/18 10:38:11;;;;;;;11.27;4.95;;;;;;;;;;8403391;28;20048;-81
2023/03/18 10:42:20;;;;;;;6.95;3.92;;;;;;;;;;8421203;28;20479;-82
2023/03/18 10:46:25;;;;;;;9.35;4.10;;;;;;;;;;8415773;28;20052;-80
2023/03/18 10:50:35;;;;;;;10.00;4.65;;;;;;;;;;8414749;28;20048;-80
2023/03/18 10:54:42;;;;;;;12.63;4.57;;;;;;;;;;8441785;28;20048;-84
2023/03/18 10:58:46;;;;;;;8.68;4.30;;;;;;;;;;8442502;28;20411;-80
2023/03/18 11:02:49;;;;;;;9.00;4.13;;;;;;;;;;8438665;28;20494;-82
2023/03/18 11:06:57;;;;;;;16.10;7.55;;;;;;;;;;8443710;28;20050;-81
2023/03/18 11:11:16;;;;;;;18.73;7.03;;;;;;;;;;8453947;28;20499;-81
2023/03/18 11:15:20;;;;;;;8.13;4.50;;;;;;;;;;8467239;28;20069;-80
2023/03/18 11:19:30;;;;;;;9.20;4.05;;;;;;;;;;8466901;28;20043;-81
2023/03/18 11:23:47;;;;;;;8.65;4.32;;;;;;;;;;8467356;28;20051;-81
2023/03/18 11:27:57;;;;;;;9.70;4.90;;;;;;;;;;8466889;28;20043;-79
2023/03/18 11:32:01;;;;;;;11.20;5.53;;;;;;;;;;8467284;28;20521;-80
2023/03/18 11:36:09;;;;;;;11.60;4.55;;;;;;;;;;8466767;28;20511;-79
2023/03/18 11:40:24;;;;;;;10.48;4.53;;;;;;;;;;8464460;28;21217;-80
2023/03/18 11:44:33;;;;;;;10.65;4.22;;;;;;;;;;8466440;28;20043;-78
2023/03/18 11:48:39;;;;;;;8.73;4.25;;;;;;;;;;8466162;28;20063;-79
2023/03/18 11:52:52;;;;;;;16.40;7.28;;;;;;;;;;8452625;28;20137;-80
2023/03/18 11:56:57;;;;;;;8.27;4.45;;;;;;;;;;8439556;28;20044;-80
2023/03/18 12:01:10;;;;;;;8.40;3.97;;;;;;;;;;8465818;28;20054;-80
2023/03/18 12:05:45;;;;;;;9.25;4.72;;;;;;;;;;8465565;28;20063;-80
2023/03/18 12:09:55;;;;;;;14.52;7.25;;;;;;;;;;8465456;28;20039;-80
2023/03/18 12:14:04;;;;;;;19.63;7.82;;;;;;;;;;8465188;28;20051;-80
2023/03/18 12:18:20;;;;;;;10.18;5.05;;;;;;;;;;8465443;28;20047;-85
2023/03/18 12:22:38;;;;;;;32.40;13.43;;;;;;;;;;8466079;28;20415;-82
2023/03/18 12:26:49;;;;;;;24.40;11.43;;;;;;;;;;8465694;28;20126;-81
2023/03/18 12:31:01;;;;;;;;;;;;;;;;;;8465892;28;20401;-83
2023/03/18 12:35:22;;;;;;;10.05;6.03;;;;;;;;;;8451812;28;19920;-80
2023/03/18 12:39:57;;;;;;;20.75;10.43;;;;;;;;;;8443311;28;20043;-79
2023/03/18 12:44:23;;;;;;;9.82;5.10;;;;;;;;;;8438540;28;20096;-90
2023/03/18 12:48:31;;;;;;;11.13;5.85;;;;;;;;;;8434610;28;20530;-84
2023/03/18 12:52:42;;;;;;;7.80;4.30;;;;;;;;;;8456219;28;20047;-84
2023/03/18 12:56:49;;;;;;;11.43;6.25;;;;;;;;;;8428302;28;20101;-80
2023/03/18 13:00:57;;;;;;;9.75;4.93;;;;;;;;;;8440235;28;20050;-80
2023/03/18 13:05:04;;;;;;;9.05;4.13;;;;;;;;;;8442910;28;20126;-82
2023/03/18 13:09:14;;;;;;;11.13;4.43;;;;;;;;;;8421087;28;20400;-81
2023/03/18 13:13:17;;;;;;;8.73;4.60;;;;;;;;;;8439210;28;20051;-89
2023/03/18 13:17:28;;;;;;;7.82;4.50;;;;;;;;;;8427154;28;20048;-80
2023/03/18 13:21:34;;;;;;;9.10;4.43;;;;;;;;;;8411349;28;20040;-79
2023/03/18 13:25:51;;;;;;;19.55;6.80;;;;;;;;;;8455125;28;20092;-79
2023/03/18 13:30:04;;;;;;;13.50;6.35;;;;;;;;;;8440703;28;20535;-80
2023/03/18 13:34:43;;;;;;;26.83;15.40;;;;;;;;;;8439925;28;20404;-80
2023/03/18 13:39:08;;;;;;;9.52;4.80;;;;;;;;;;8444661;28;20082;-79
2023/03/18 13:43:17;;;;;;;10.65;4.50;;;;;;;;;;8462868;28;20505;-82
2023/03/18 13:47:22;;;;;;;7.25;3.95;;;;;;;;;;8463501;28;20070;-79
2023/03/18 13:51:50;;;;;;;5.97;3.53;;;;;;;;;;8449804;28;20044;-84
2023/03/18 13:56:05;;;;;;;9.82;5.22;;;;;;;;;;8437443;28;20052;-80
2023/03/18 14:00:31;;;;;;;12.13;6.78;;;;;;;;;;8435699;28;20430;-81
2023/03/18 14:04:46;;;;;;;10.60;5.43;;;;;;;;;;8439595;28;20421;-79
2023/03/18 14:08:51;;;;;;;9.43;4.80;;;;;;;;;;8450210;28;20040;-78
2023/03/18 14:12:54;;;;;;;7.93;4.47;;;;;;;;;;8443765;28;20075;-78
2023/03/18 14:16:59;;;;;;;10.15;4.30;;;;;;;;;;8460811;28;20048;-81
2023/03/18 14:21:03;;;;;;;8.55;4.38;;;;;;;;;;8447057;28;20055;-80
2023/03/18 14:25:23;;;;;;;10.25;5.13;;;;;;;;;;8460815;28;20039;-79
2023/03/18 14:29:29;;;;;;;14.98;7.95;;;;;;;;;;8437376;28;20071;-80
2023/03/18 14:33:40;;;;;;;11.95;6.93;;;;;;;;;;8463408;28;20494;-79
2023/03/18 14:38:02;;;;;;;11.60;5.82;;;;;;;;;;8469477;28;20238;-79
2023/03/18 14:42:16;;;;;;;9.60;5.25;;;;;;;;;;8469042;28;20131;-81
2023/03/18 14:46:24;;;;;;;11.70;5.95;;;;;;;;;;8455388;28;20054;-79
2023/03/18 14:50:39;;;;;;;9.82;5.00;;;;;;;;;;8443770;28;20388;-79
2023/03/18 14:54:44;;;;;;;8.98;4.28;;;;;;;;;;8468680;28;20051;-80
2023/03/18 14:58:50;;;;;;;9.00;4.57;;;;;;;;;;8468588;28;20039;-80
2023/03/18 15:03:00;;;;;;;10.15;5.55;;;;;;;;;;8464800;28;20098;-79
2023/03/18 15:07:08;;;;;;;8.70;4.65;;;;;;;;;;8459152;28;20130;-79
2023/03/18 15:11:13;;;;;;;11.60;4.78;;;;;;;;;;8453836;27;20039;-80
2023/03/18 15:15:17;;;;;;;10.00;5.13;;;;;;;;;;8463948;28;20052;-81
2023/03/18 15:19:22;;;;;;;10.82;4.35;;;;;;;;;;8463283;28;20048;-80
2023/03/18 15:23:32;;;;;;;11.27;5.82;;;;;;;;;;8444852;28;20053;-79
2023/03/18 15:27:36;;;;;;;8.23;4.57;;;;;;;;;;8452334;28;20071;-79
2023/03/18 15:31:43;;;;;;;29.20;19.00;;;;;;;;;;8465592;28;20043;-81
2023/03/18 15:35:54;;;;;;;15.02;9.45;;;;;;;;;;8442930;27;20052;-81
2023/03/18 15:40:17;;;;;;;12.07;6.28;;;;;;;;;;8451035;28;20532;-80
2023/03/18 15:44:27;;;;;;;12.60;6.20;;;;;;;;;;8401468;28;20048;-80
2023/03/18 15:48:35;;;;;;;16.17;8.65;;;;;;;;;;8409870;28;20167;-79
2023/03/18 15:52:42;;;;;;;11.60;5.93;;;;;;;;;;8409201;28;20503;-80
2023/03/18 15:56:49;;;;;;;20.80;7.55;;;;;;;;;;8420663;28;20052;-80
2023/03/18 16:00:55;;;;;;;14.73;8.90;;;;;;;;;;8422831;28;20491;-89
2023/03/18 16:05:08;;;;;;;18.63;10.48;;;;;;;;;;8424614;28;20055;-88
2023/03/18 16:09:17;;;;;;;21.58;12.48;;;;;;;;;;8439172;28;20055;-84
2023/03/18 16:13:28;;;;;;;13.30;6.55;;;;;;;;;;8431364;28;20484;-79
2023/03/18 16:17:34;;;;;;;;;;;;;;;;;;8425653;28;20784;-79
2023/03/18 16:21:38;;;;;;;11.38;6.15;;;;;;;;;;8421845;28;19928;-88
2023/03/18 16:25:44;;;;;;;12.02;6.47;;;;;;;;;;8416261;28;20510;-80
2023/03/18 16:29:49;;;;;;;10.52;4.88;;;;;;;;;;8435763;28;20502;-79
2023/03/18 16:33:54;;;;;;;11.30;6.10;;;;;;;;;;8434924;28;20559;-81
2023/03/18 16:37:59;;;;;;;12.63;6.72;;;;;;;;;;8428566;28;20488;-81
2023/03/18 16:42:05;;;;;;;19.33;7.82;;;;;;;;;;8401593;28;20089;-80
2023/03/18 16:46:16;;;;;;;45.95;19.98;;;;;;;;;;8398994;28;20065;-80
2023/03/18 16:50:31;;;;;;;25.92;10.65;;;;;;;;;;8427149;28;20040;-84
2023/03/18 16:54:34;;;;;;;21.42;9.68;;;;;;;;;;8422533;28;20048;-79
2023/03/18 16:58:37;;;;;;;23.73;10.77;;;;;;;;;;8410883;28;20101;-85
2023/03/18 17:07:26;;;;;;;15.50;7.18;;;;;;;;;;8418687;28;20051;-80
2023/03/18 17:11:37;;;;;;;16.33;7.15;;;;;;;;;;8408925;28;20048;-83
2023/03/18 17:15:45;;;;;;;17.08;8.23;;;;;;;;;;8357222;28;20044;-85
2023/03/18 17:19:51;;;;;;;27.13;14.48;;;;;;;;;;8351434;28;20055;-79
2023/03/18 17:23:57;;;;;;;82.00;34.22;;;;;;;;;;8361100;28;20049;-80
2023/03/18 17:28:05;;;;;;;52.22;21.38;;;;;;;;;;8365255;28;20116;-79
2023/03/18 17:32:10;;;;;;;48.60;21.95;;;;;;;;;;8338759;28;20056;-80
2023/03/18 17:36:17;;;;;;;30.98;13.80;;;;;;;;;;8357011;28;20056;-80
2023/03/18 17:40:23;;;;;;;30.35;14.00;;;;;;;;;;8344185;28;20048;-78
2023/03/18 17:44:34;;;;;;;137.38;49.78;;;;;;;;;;8353820;28;20053;-79
2023/03/18 17:48:40;;;;;;;80.88;31.60;;;;;;;;;;8340103;28;20051;-81
2023/03/18 17:52:47;;;;;;;111.70;48.05;;;;;;;;;;8335407;28;20604;-80
2023/03/18 17:56:52;;;;;;;154.60;60.75;;;;;;;;;;8345213;28;20045;-78
2023/03/18 18:01:01;;;;;;;145.43;58.35;;;;;;;;;;8347941;28;20087;-78
2023/03/18 18:05:06;;;;;;;157.27;60.55;;;;;;;;;;8345516;28;20772;-79
2023/03/18 18:09:13;;;;;;;130.20;51.88;;;;;;;;;;8355685;28;20050;-80
2023/03/18 18:13:20;;;;;;;83.57;36.03;;;;;;;;;;8392202;28;20083;-79
2023/03/18 18:17:23;;;;;;;43.85;17.85;;;;;;;;;;8434986;28;20058;-79
2023/03/18 18:21:27;;;;;;;32.40;18.20;;;;;;;;;;8426514;28;20035;-80
2023/03/18 18:25:34;;;;;;;160.82;68.25;;;;;;;;;;8425631;27;20740;-79
2023/03/18 18:29:42;;;;;;;39.92;24.63;;;;;;;;;;8415875;28;20048;-79
2023/03/18 18:33:53;;;;;;;43.30;20.77;;;;;;;;;;8419868;28;20548;-89
2023/03/18 18:38:00;;;;;;;29.83;14.95;;;;;;;;;;8415407;28;20472;-78
2023/03/18 18:42:06;;;;;;;26.63;13.15;;;;;;;;;;8409552;28;20055;-79
2023/03/18 18:46:13;;;;;;;37.00;16.48;;;;;;;;;;8444384;28;20078;-78
2023/03/18 18:50:22;;;;;;;41.58;20.92;;;;;;;;;;8433621;28;20043;-78
2023/03/18 18:54:27;;;;;;;53.50;22.20;;;;;;;;;;8461930;28;20051;-79
2023/03/18 18:58:33;;;;;;;45.53;19.15;;;;;;;;;;8436670;28;20056;-78
2023/03/18 19:02:38;;;;;;;49.03;20.10;;;;;;;;;;8462621;28;20050;-80
2023/03/18 19:06:44;;;;;;;41.40;18.58;;;;;;;;;;8465437;28;20453;-76
2023/03/18 19:10:48;;;;;;;38.72;16.42;;;;;;;;;;8473325;28;20100;-79
2023/03/18 19:14:54;;;;;;;43.38;18.33;;;;;;;;;;8472360;28;20055;-78
2023/03/18 19:18:59;;;;;;;31.20;15.30;;;;;;;;;;8461681;28;20066;-77
2023/03/18 19:23:06;;;;;;;28.63;13.65;;;;;;;;;;8466635;28;20055;-78
2023/03/18 19:27:19;;;;;;;40.95;17.40;;;;;;;;;;8466951;28;20040;-79
2023/03/18 19:31:29;;;;;;;49.58;18.50;;;;;;;;;;8466783;28;20071;-79
2023/03/18 19:35:32;;;;;;;25.88;13.45;;;;;;;;;;8445728;28;20138;-79
2023/03/18 19:39:37;;;;;;;36.80;15.95;;;;;;;;;;8447054;28;20048;-79
2023/03/18 19:43:43;;;;;;;31.80;12.82;;;;;;;;;;8430926;28;20432;-80
2023/03/18 19:47:48;;;;;;;41.08;14.25;;;;;;;;;;8431771;28;20054;-78
2023/03/18 19:51:55;;;;;;;24.52;10.25;;;;;;;;;;8431588;28;20489;-81
2023/03/18 19:55:59;;;;;;;35.75;13.13;;;;;;;;;;8431176;28;20121;-79
2023/03/18 20:00:17;;;;;;;31.10;11.05;;;;;;;;;;8432174;28;20048;-81
2023/03/18 20:04:29;;;;;;;23.73;9.95;;;;;;;;;;8432047;28;20484;-79
2023/03/18 20:08:35;;;;;;;;;;;;;;;;;;8432636;28;20415;-79
2023/03/18 20:12:44;;;;;;;25.10;11.15;;;;;;;;;;8431624;28;20015;-78
2023/03/18 20:16:48;;;;;;;31.70;12.82;;;;;;;;;;8431628;28;20055;-78
2023/03/18 20:20:55;;;;;;;32.38;12.73;;;;;;;;;;8418811;28;20036;-78
2023/03/18 20:25:00;;;;;;;25.50;12.25;;;;;;;;;;8431411;28;20399;-79
2023/03/18 20:29:22;;;;;;;27.13;10.18;;;;;;;;;;8431383;28;20032;-80
2023/03/18 20:33:31;;;;;;;31.15;11.98;;;;;;;;;;8410816;28;20605;-78
2023/03/18 20:37:39;;;;;;;29.15;9.30;;;;;;;;;;8431326;28;20097;-79
2023/03/18 20:41:44;;;;;;;28.00;11.88;;;;;;;;;;8431053;28;20160;-79
2023/03/18 20:45:51;;;;;;;48.70;20.10;;;;;;;;;;8431302;28;20135;-80
2023/03/18 20:49:56;;;;;;;33.22;12.80;;;;;;;;;;8417601;28;20123;-79
2023/03/18 20:54:12;;;;;;;40.30;15.98;;;;;;;;;;8430676;28;20052;-78
2023/03/18 20:58:20;;;;;;;23.40;10.75;;;;;;;;;;8419453;28;20044;-80
2023/03/18 21:02:37;;;;;;;56.17;19.70;;;;;;;;;;8430252;28;20047;-79
2023/03/18 21:06:42;;;;;;;34.00;14.80;;;;;;;;;;8430489;28;20043;-80
2023/03/18 21:10:49;;;;;;;29.20;12.43;;;;;;;;;;8430356;28;20160;-79
2023/03/18 21:14:55;;;;;;;32.70;14.23;;;;;;;;;;8429894;28;20090;-79
2023/03/18 21:19:01;;;;;;;32.25;12.65;;;;;;;;;;8429813;28;20503;-80
2023/03/18 21:23:22;;;;;;;41.25;15.68;;;;;;;;;;8439232;28;20082;-78
2023/03/18 21:27:28;;;;;;;;;;;;;;;;;;8463522;28;20048;-78
2023/03/18 21:31:33;;;;;;;22.45;9.93;;;;;;;;;;8463083;28;19920;-78
2023/03/18 21:35:37;;;;;;;23.38;10.10;;;;;;;;;;8463128;28;20044;-78
2023/03/18 21:39:40;;;;;;;19.88;9.02;;;;;;;;;;8463414;28;20051;-76
2023/03/18 21:43:47;;;;;;;33.42;13.75;;;;;;;;;;8443934;28;20101;-80
2023/03/18 21:47:51;;;;;;;83.45;28.92;;;;;;;;;;8455156;28;20055;-79
2023/03/18 21:51:55;;;;;;;25.35;10.23;;;;;;;;;;8463038;28;20399;-79
2023/03/18 21:55:59;;;;;;;20.10;9.15;;;;;;;;;;8462382;28;20483;-78
2023/03/18 22:00:05;;;;;;;21.52;8.30;;;;;;;;;;8462075;28;20043;-78
2023/03/18 22:04:08;;;;;;;27.55;11.90;;;;;;;;;;8462429;28;20087;-77
2023/03/18 22:08:12;;;;;;;32.08;13.00;;;;;;;;;;8462222;28;20061;-77
2023/03/18 22:12:20;;;;;;;30.70;13.40;;;;;;;;;;8462022;28;20062;-77
2023/03/18 22:16:24;;;;;;;28.52;13.57;;;;;;;;;;8460722;28;20050;-78
2023/03/18 22:20:27;;;;;;;23.38;9.88;;;;;;;;;;8462306;28;20101;-78
2023/03/18 22:24:30;;;;;;;23.85;8.88;;;;;;;;;;8462144;28;20055;-80
2023/03/18 22:28:33;;;;;;;20.52;8.23;;;;;;;;;;8461641;28;20043;-78
2023/03/18 22:32:40;;;;;;;22.65;10.35;;;;;;;;;;8461198;28;20052;-79
2023/03/18 22:36:43;;;;;;;25.65;9.77;;;;;;;;;;8461939;28;20161;-78
2023/03/18 22:40:48;;;;;;;20.73;8.60;;;;;;;;;;8461560;28;20048;-78
2023/03/18 22:44:52;;;;;;;21.70;9.20;;;;;;;;;;8462896;28;20048;-78
2023/03/18 22:48:57;;;;;;;62.15;20.00;;;;;;;;;;8461232;28;20074;-82
2023/03/18 22:53:05;;;;;;;46.90;17.15;;;;;;;;;;8461003;28;20049;-78
2023/03/18 22:57:19;;;;;;;18.35;8.63;;;;;;;;;;8467164;28;20051;-79
2023/03/18 23:01:29;;;;;;;30.33;12.90;;;;;;;;;;8467879;28;20126;-78
2023/03/18 23:05:33;;;;;;;22.63;9.07;;;;;;;;;;8467832;28;20471;-78
2023/03/18 23:09:36;;;;;;;22.95;8.10;;;;;;;;;;8467149;28;20479;-78
2023/03/18 23:13:41;;;;;;;21.55;9.02;;;;;;;;;;8467524;28;20134;-79
2023/03/18 23:17:45;;;;;;;43.80;15.55;;;;;;;;;;8466473;28;20061;-79
2023/03/18 23:21:50;;;;;;;38.42;17.50;;;;;;;;;;8458978;28;20150;-81
2023/03/18 23:25:53;;;;;;;42.80;17.77;;;;;;;;;;8449113;28;20050;-82
2023/03/18 23:29:56;;;;;;;28.73;13.63;;;;;;;;;;8467102;28;20070;-82
2023/03/18 23:33:59;;;;;;;34.33;12.32;;;;;;;;;;8466568;28;20050;-79
2023/03/18 23:38:03;;;;;;;21.27;9.38;;;;;;;;;;8466676;28;20054;-79
2023/03/18 23:42:06;;;;;;;20.92;7.80;;;;;;;;;;8466691;28;20058;-78
2023/03/18 23:46:09;;;;;;;15.73;7.15;;;;;;;;;;8466260;28;20044;-78
2023/03/18 23:50:12;;;;;;;15.23;7.18;;;;;;;;;;8465182;28;20040;-79
2023/03/18 23:54:16;;;;;;;15.38;6.78;;;;;;;;;;8465993;28;20043;-79
2023/03/18 23:58:19;;;;;;;15.55;6.97;;;;;;;;;;8451925;28;20048;-78
